首页
METAR-TAF:

METAR-TAF

机场 :

Harrisburg-Raleigh Airport

哈里斯堡, 伊利诺伊州, 美国

纬度: 37-48-41N, 经度: 088-32-57W, 海拔: 121米

当前天气观测

该预报发布于25分钟前的16:55 UTC
风速5节,风向西转西南
温度 29°C
湿度 62%
气压 1014 hPa
能見度: 16.1公里
天空无云

METAR: KHSB 051655Z AUTO 24005KT 10SM CLR 29/21 A2995 RMK AO2 T02860213

时间: 12:20 (17:20 UTC)


TAF: 丢失

超过4000个机场的气象观测和天气预报(METAR&TAF报告)。

可查询的气象台以黄色和红色小点在地图上表示。

将鼠标移到小点上方,可查看气象台名称。

然后点击查看天气观测和预报。

如需切换地图:点击带黑十字的绿色按钮放大地图;点击带横线的绿色按钮缩小地图;或者点击绿色箭头查看邻近地区的地图。


METAR-TAF: